SondeTracker

Meteorological Radiosondes Database

Operations
Radiosondes Table of last 48 hours (372)
Number Type Last Frame [UTC] φ λ Course Speed Altitude Climbing Launch Site Frequency Nearest City Distance from QTH Status
R1050059 RS41 2020-06-02 13:54:23 43.4419 -3.6401 46 ° 9 km/h 3521 m -3.8 m/s Santander (ES) 401.50 MHz Santander (ES) 0.00 km UNKNOWN
R5040751 RS41 2020-06-02 13:48:31 46.8013 19.0344 139 ° 17 km/h 1315 m -12.0 m/s Budapest (HU) 403.00 MHz Solt (HU) 0.00 km UNKNOWN
R3640563 RS41-SG 2020-06-02 13:47:25 52.5403 -1.00829 127 ° 9 km/h 885 m -3.8 m/s Watnall (GB) 404.202 MHz Leicester (GB) 0.00 km UNKNOWN
R3450325 RS41 2020-06-02 13:46:53 40.1256 18.5598 148 ° 39 km/h 515 m -3.3 m/s Brindisi (IT) 402.70 MHz Lecce (IT) 0.00 km UNKNOWN
ME9722800 M10 2020-06-02 13:44:55 44.5106 -0.60568 143 ° 4 km/h 4825 m -2.6 m/s Bordeaux (FR) 401.998 MHz Gradignan (FR) 0.00 km UNKNOWN
R3660293 RS41 2020-06-02 13:44:52 51.3806 13.4313 158 ° 31 km/h 731 m -4.4 m/s Lindenberg (DE) 405.10 MHz Gröditz (DE) 0.00 km UNKNOWN
R1920760 RS41 2020-06-02 13:40:55 60.4535 22.2611 36 ° 11 km/h 501 m -13.1 m/s Jokioinen (FI) 403.000 MHz Turku (FI) 0.00 km UNKNOWN
R4030668 RS41 2020-06-02 13:39:36 -26.1315 -47.1477 91 ° 11 km/h 1600 m -6.3 m/s 403.002 MHz 0.00 km UNKNOWN
R1220034 RS41 2020-06-02 13:38:44 54.2808 9.2114 209 ° 4 km/h 211 m -3.1 m/s Schleswig (DE) 402.50 MHz Heide (DE) 0.00 km UNKNOWN
ME96221CE M10 2020-06-02 13:31:19 41.7497 8.98602 250 ° 22 km/h 4555 m -13.8 m/s Ajaccio (FR) MHz Ajaccio (FR) 0.00 km UNKNOWN
D19034117 DFM 2020-06-02 13:30:52 45.81 20.2898 158 ° 35 km/h 498 m -10.5 m/s Szeged (HU) 402.008 MHz Kikinda (RS) 0.00 km UNKNOWN
R2410398 RS41 2020-06-02 13:30:46 41.4045 12.7055 39 ° 17 km/h 155 m -8.4 m/s Pratica di Mare (IT) 404.20 MHz Anzio (IT) 0.00 km UNKNOWN
R3020947 RS41 2020-06-02 13:29:55 56.4634 3.42724 178 ° 33 km/h 14946 m -21.1 m/s Ekofisk (NO) 402.00 MHz 0.00 km UNKNOWN
DF627005 DFM06 2020-06-02 13:29:00 45.8193 20.2835 147 ° 31 km/h 1631 m -11.1 m/s Szeged (HU) MHz Kikinda (RS) 0.00 km UNKNOWN
ME96226F9 M10 2020-06-02 13:24:56 48.4811 1.79516 196 ° 7 km/h 1587 m -10.9 m/s Trappes (FR) 401.000 MHz Rambouillet (FR) 0.00 km UNKNOWN
R0221008 RS41 2020-06-02 13:23:02 43.9827 7.1887 198 ° 20 km/h 4670 m -2.7 m/s Cuneo-Levaldigi (IT) 402.80 MHz Nice (FR) 0.00 km UNKNOWN
R2620704 RS41 2020-06-02 13:22:45 50.3706 16.392 175 ° 41 km/h 1369 m -11.0 m/s Wrocław (PL) 403.00 MHz Duszniki-Zdrój (PL) 0.00 km UNKNOWN
R4350109 RS41 2020-06-02 13:21:36 -29.8515 -52.3688 0 ° 13 km/h 1103 m -8.2 m/s 403.001 MHz 0.00 km UNKNOWN
R0340600 RS41 2020-06-02 13:19:58 48.6383 19.8884 193 ° 33 km/h 3466 m -8.2 m/s Poprad (SK) 400.60 MHz Tisovec (SK) 0.00 km UNKNOWN
R4840183 RS41-SG 2020-06-02 13:19:26 -34.3523 139.091 25 ° 43 km/h 1476 m -5.7 m/s Adelaide (AU) 401.501 MHz Adelaide (AU) 0.00 km UNKNOWN
R3350756 RS41 2020-06-02 13:19:23 48.2662 8.77038 249 ° 4 km/h 896 m -4.4 m/s Stuttgart (DE) 404.50 MHz Geislingen (DE) 0.00 km FOUND
P3321208 RS41 2020-06-02 13:17:50 48.8513 11.386 341 ° 2 km/h 1265 m -4.6 m/s Kümmersbruck (DE) 402.700 MHz Kessel (NL) 0.00 km UNKNOWN
R3240946 RS41 2020-06-02 13:17:08 45.3217 16.0269 264 ° 2 km/h 306 m -11.7 m/s Zagreb (HR) 402.00 MHz Glina (HR) 0.00 km UNKNOWN
R4350792 RS41 2020-06-02 13:17:01 54.0999 16.7067 190 ° 31 km/h 561 m -11.3 m/s Łeba (PL) 403.00 MHz Polanów (PL) 0.00 km UNKNOWN
R3451576 RS41 2020-06-02 13:15:19 37.4542 13.314 72 ° 15 km/h 745 m -2.2 m/s Trapani-Birgi (IT) 402.70 MHz Agrigento (IT) 0.00 km UNKNOWN
N4730556 RS41 2020-06-02 13:14:03 46.3692 6.61173 169 ° 2 km/h 2354 m -6.4 m/s Payerne (CH) 403.50 MHz Thonon-les-Bains (FR) 0.00 km UNKNOWN
D17002424 DFM09 2020-06-02 13:13:17 49.1802 7.35814 290 ° 7 km/h 976 m -13.8 m/s Idar-Oberstein (DE) 402.010 MHz Hornbach (DE) 0.00 km UNKNOWN
P2830004 RS41 2020-06-02 13:12:23 45.0737 9.0862 172 ° 19 km/h 3168 m -12.4 m/s Milano-Linate (IT) 404.80 MHz Pavia (IT) 0.00 km UNKNOWN
R1150065 RS41 2020-06-02 13:11:52 48.785 16.8153 172 ° 24 km/h 336 m -15.7 m/s Prostějov (CZ) 402.10 MHz Lednice (CZ) 0.00 km UNKNOWN
S0240359 RS41-SGP 2020-06-02 13:11:26 33.5964 -117.368 349 ° 69 km/h 2876 m -9.0 m/s San Diego [CA] (USA) 400.650 MHz 0.00 km UNKNOWN
R4530459 RS41 2020-06-02 13:10:41 52.021 20.3892 159 ° 20 km/h 252 m -10.4 m/s Legionowo (PL) 404.50 MHz Żyrardów (PL) 0.00 km UNKNOWN
ME922294F M10 2020-06-02 13:10:38 43.0295 22.2834 133 ° 50 km/h 3587 m -15.7 m/s Niš (RS) 402.401 MHz Babušnica (RS) 0.00 km UNKNOWN
R3450583 RS41 2020-06-02 13:10:01 45.5554 12.9448 20 ° 30 km/h 117 m -8.1 m/s Udine-Rivolto (IT) 404.00 MHz Umag (HR) 0.00 km UNKNOWN
R3340282 RS41-SGP 2020-06-02 13:08:17 51.0494 6.74084 303 ° 9 km/h 1021 m -4.9 m/s Essen (DE) 405.30 MHz Pulheim (DE) 0.00 km FOUND
R3340700 RS41 2020-06-02 13:06:24 53.5037 6.86738 18 ° 7 km/h 404 m -8.7 m/s Norderney (DE) 404.10 MHz Borkum (DE) 0.00 km UNKNOWN
R2331278 RS41 2020-06-02 13:05:00 52.4561 9.54375 315 ° 15 km/h 257 m -14.0 m/s Bergen (DE) 405.70 MHz Garbsen (DE) 0.00 km UNKNOWN
N0710004 RS41 2020-06-02 13:03:53 25.168 121.94 32 ° 59 km/h 7109 m -3.9 m/s New Taipei (TW) 400.30 MHz 0.00 km UNKNOWN
R3340385 RS41 2020-06-02 13:03:28 43.7728 15.4479 173 ° 43 km/h 3124 m -20.5 m/s Zadar (HR) 403.00 MHz Biograd na Moru (HR) 0.00 km UNKNOWN
S0440803 RS41-SGP 2020-06-02 13:02:50 44.3095 11.7728 110 ° 15 km/h 1066 m -13.3 m/s San Pietro Capofiume (IT) 404.60 MHz Imola (IT) 0.00 km FOUND
R3420174 RS41-SG 2020-06-02 13:01:55 42.4252 23.8081 136 ° 30 km/h 2967 m -15.6 m/s Sofia (BG) 405.302 MHz Apriltsi (BG) 0.00 km UNKNOWN
R4450727 RS41-SG 2020-06-02 13:00:55 44.6515 26.7012 261 ° 11 km/h 880 m -9.2 m/s Bucarest (RO) 403.921 MHz Urziceni (RO) 0.00 km UNKNOWN
R3770611 RS41 2020-06-02 12:59:10 49.4532 14.1636 194 ° 17 km/h 623 m -10.6 m/s Praha (CZ) 401.10 MHz Mirotice (CZ) 0.00 km UNKNOWN
R2810813 RS41 2020-06-02 12:56:47 47.7364 11.2283 286 ° 6 km/h 1395 m -6.9 m/s München (DE) 402.30 MHz Penzberg (DE) 0.00 km FOUND
R3620527 RS41 2020-06-02 12:55:25 56.4847 24.459 235 ° 44 km/h 6001 m -11.6 m/s Skriveri (LV) 403.000 MHz Biržai (LT) 0.00 km UNKNOWN
ME749529 M10 2020-06-02 12:54:36 43.0854 22.2104 184 ° 19 km/h 32476 m 9.4 m/s Niš (RS) MHz Vlasotince (RS) 0.00 km UNKNOWN
ME9222BB3 M10 2020-06-02 12:53:44 44.3786 20.7942 150 ° 44 km/h 2441 m -12.1 m/s Belgrade (RS) MHz Smederevska Palanka (RS) 0.00 km UNKNOWN
R3550966 2020-06-02 12:53:26 -23.0333 -42.4878 90 ° 17 km/h 23701 m -39.4 m/s 405.301 MHz 0.00 km UNKNOWN
R2150491 RS41-SGP 2020-06-02 12:50:25 58.7984 5.47134 25 ° 39 km/h 8870 m -14.7 m/s Stavanger (NO) 403.000 MHz 0.00 km UNKNOWN
DF927005 DFM09 2020-06-02 12:48:36 45.9226 20.2703 283 ° 52 km/h 29688 m 6.7 m/s Szeged (HU) 402.009 MHz Čoka (RS) 0.00 km UNKNOWN
P4010041 RS41 2020-06-02 12:47:04 24.0484 121.642 263 ° 17 km/h 31311 m 7.5 m/s MHz 0.00 km UNKNOWN
ME7C22E30 M10 2020-06-02 12:46:56 -34.6771 -57.7286 100 ° 209 km/h 30848 m 8.9 m/s 401.400 MHz 0.00 km UNKNOWN
R3640677 RS41 2020-06-02 12:46:25 54.0224 -6.13244 265 ° 46 km/h 25814 m 5.9 m/s Castor Bay (IE) 404.201 MHz Kilkeel (IE) 0.00 km UNKNOWN
S0440098 RS41 2020-06-02 12:45:55 62.5055 17.4045 126 ° 28 km/h 10679 m -16.5 m/s Sundsvall (SE) 404.001 MHz Sundsvall (SE) 0.00 km UNKNOWN
R2340859 RS41 2020-06-02 12:45:22 49.2831 7.08943 209 ° 9 km/h 548 m -12.6 m/s Idar-Oberstein (DE) 402.700 MHz St. Ingbert (DE) 0.00 km UNKNOWN
R3340349 RS41 2020-06-02 12:41:21 50.1007 10.0344 285 ° 11 km/h 701 m -14.4 m/s Meiningen (DE) 402.30 MHz Hammelburg (DE) 0.00 km UNKNOWN
P2611194 RS41 2020-06-02 12:39:25 53.354 9.88792 294 ° 11 km/h 163 m -11.3 m/s Sasel (DE) 402.70 MHz Buchholz in der Nordheide (DE) 0.00 km UNKNOWN
ME758379 M10 2020-06-02 12:36:39 44.4677 20.682 328 ° 37 km/h 29630 m -45.5 m/s Belgrade (RS) MHz Aranđelovac (RS) 0.00 km UNKNOWN
R3670417 RS41-SG 2020-06-02 12:34:26 -37.2064 145.769 75 ° 41 km/h 18115 m -18.9 m/s Melbourne (AU) 401.500 MHz Melbourne (AU) 0.00 km UNKNOWN
D18060214 DFM09 2020-06-02 12:26:24 50.445 4.71073 212 ° 6 km/h 2090 m -12.4 m/s Beauvechain (BE) 402.730 MHz Fosses-la-Ville (BE) 0.00 km UNKNOWN
DF9393B6 DFM09 2020-06-02 12:22:26 50.4417 4.70564 97 ° 11 km/h 5508 m -13.8 m/s Beauvechain (BE) 402.730 MHz Fosses-la-Ville (BE) 0.00 km UNKNOWN
P2150438 RS41 2020-06-02 11:51:49 52.3939 7.34009 280 ° 7 km/h 482 m -7.2 m/s Meppen (DE) 404.50 MHz Schüttorf (DE) 0.00 km UNKNOWN
P3340527 RS41 2020-06-02 11:51:24 47.2294 10.7077 222 ° 15 km/h 2608 m -4.8 m/s Altenstadt (DE) 402.50 MHz Telfs (AT) 0.00 km UNKNOWN
PNAI1470 PilS 2020-06-02 11:00:43 53.1193 17.9351 221 ° 39 km/h 14858 m 3.1 m/s 401.47 MHz Bydgoszcz (PL) 0.00 km UNKNOWN
PMAI1470 PilS 2020-06-02 10:55:49 53.1416 17.9592 202 ° 37 km/h 14109 m 2.7 m/s 401.47 MHz Bydgoszcz (PL) 0.00 km UNKNOWN
D18081094 DFM 2020-06-02 10:51:40 53.1141 9.78004 297 ° 9 km/h 223 m -10.0 m/s Sasel (DE) 402.009 MHz Schneverdingen (DE) 0.00 km UNKNOWN
DF63E546 DFM06 2020-06-02 10:51:05 53.1131 9.78333 287 ° 15 km/h 1071 m -11.4 m/s Sasel (DE) MHz Schneverdingen (DE) 0.00 km UNKNOWN
P2150449 RS41 2020-06-02 09:11:04 52.326 7.39476 287 ° 11 km/h 199 m -1.2 m/s Meppen (DE) 405.10 MHz Rheine (DE) 0.00 km FOUND
D18015482 DFM 2020-06-02 09:08:59 44.361 20.2489 152 ° 81 km/h 6817 m -23.3 m/s Belgrade (RS) MHz Lajkovac (RS) 0.00 km UNKNOWN
D17051982 DFM09 2020-06-02 09:07:55 52.3224 7.40081 317 ° 11 km/h 684 m -2.9 m/s Meppen (DE) 403.127 MHz Rheine (DE) 0.00 km FOUND
PLAI1470 PilS 2020-06-02 09:01:31 53.8318 16.2377 170 ° 50 km/h 1040 m -12.9 m/s Świdwin (PL) 401.47 MHz Tychowo (PL) 0.00 km UNKNOWN
PKAI1470 PilS 2020-06-02 08:59:17 53.8518 16.2398 192 ° 70 km/h 2747 m -12.8 m/s Świdwin (PL) 401.47 MHz Tychowo (PL) 0.00 km UNKNOWN
S1140380 RS41-Ozone 2020-06-02 08:46:25 59.8368 23.4313 254 ° 30 km/h 670 m -9.9 m/s Porkkala (FI) 400.580 MHz Raasepori (FI) 0.00 km UNKNOWN
P3340526 RS41 2020-06-02 08:45:24 47.2684 10.5925 141 ° 11 km/h 2717 m -4.3 m/s Altenstadt (DE) 404.30 MHz Füssen (DE) 0.00 km UNKNOWN
P4530546 RS41-SG 2020-06-02 08:42:56 57.8463 13.9427 229 ° 13 km/h 4607 m -3.2 m/s Karlsborg (SE) 405.301 MHz Jönköping (SE) 0.00 km UNKNOWN
ME9B22194 M10 2020-06-02 08:39:36 47.1948 16.062 162 ° 0 km/h 404 m -3.7 m/s Vienna (AT) 401.000 MHz Szentgotthárd (HU) 0.00 km UNKNOWN
R2250047 RS41-SGM 2020-06-02 08:39:26 -33.7189 138.962 54 ° 46 km/h 900 m -6.3 m/s 402.201 MHz 0.00 km UNKNOWN
S1350379 RS41 2020-06-02 08:35:55 59.7713 23.3288 257 ° 35 km/h 574 m -5.5 m/s Porkkala (FI) 401.800 MHz Hanko (FI) 0.00 km UNKNOWN
S1530440 RS41-SGP 2020-06-02 08:33:55 59.7729 23.3576 256 ° 41 km/h 1356 m -6.3 m/s Porkkala (FI) 402.400 MHz Raasepori (FI) 0.00 km UNKNOWN
DF64314E DFM06 2020-06-02 08:30:44 52.3366 7.40517 156 ° 35 km/h 8189 m -4.4 m/s Meppen (DE) MHz Rheine (DE) 0.00 km UNKNOWN
S1750346 RS41-SG 2020-06-02 08:13:30 59.8782 23.5994 232 ° 52 km/h 2757 m -13.0 m/s Porkkala (FI) 402.701 MHz Raasepori (FI) 0.00 km UNKNOWN
N4410021 RS41 2020-06-02 07:43:59 25.2684 121.969 65 ° 43 km/h 3939 m -19.0 m/s New Taipei (TW) 400.30 MHz 0.00 km UNKNOWN
ME9622839 M10 2020-06-02 07:35:52 41.6146 9.10495 130 ° 15 km/h 4802 m -11.1 m/s Ajaccio (FR) MHz Ajaccio (FR) 0.00 km UNKNOWN
N4750410 RS41 2020-06-02 07:31:25 46.402 6.27068 219 ° 17 km/h 1117 m -5.7 m/s Payerne (CH) 403.50 MHz Gland (CH) 0.00 km UNKNOWN
R2340871 RS41 2020-06-02 07:28:38 49.1316 6.64116 245 ° 11 km/h 1106 m -7.1 m/s Idar-Oberstein (DE) 402.70 MHz Forbach (FR) 0.00 km UNKNOWN
ME97227C8 M10 2020-06-02 07:26:26 44.3342 -0.59637 172 ° 61 km/h 8281 m -3.7 m/s Bordeaux (FR) 401.998 MHz Gradignan (FR) 0.00 km UNKNOWN
R1940058 RS41-SG 2020-06-02 07:25:55 60.3976 22.3549 318 ° 13 km/h 578 m -12.9 m/s Jokioinen (FI) 402.980 MHz Kaarina (FI) 0.00 km UNKNOWN
M0830304 RS41-SGM 2020-06-02 07:24:56 -33.7109 139.095 353 ° 31 km/h 1796 m -11.6 m/s 402.801 MHz 0.00 km UNKNOWN
R3440052 RS41 2020-06-02 07:23:35 48.139 8.67052 223 ° 6 km/h 867 m -3.7 m/s Stuttgart (DE) 404.50 MHz Rottweil (DE) 0.00 km UNKNOWN
R3770506 RS41 2020-06-02 07:21:20 49.2854 14.1995 143 ° 20 km/h 915 m -8.5 m/s Praha (CZ) 401.10 MHz Písek (CZ) 0.00 km UNKNOWN
R3660329 RS41 2020-06-02 07:19:35 51.3933 13.3584 217 ° 20 km/h 783 m -5.1 m/s Lindenberg (DE) 405.10 MHz Gröditz (DE) 0.00 km UNKNOWN
R2331131 RS41 2020-06-02 07:18:05 52.2738 9.23669 308 ° 11 km/h 533 m -12.4 m/s Bergen (DE) 405.70 MHz Stadthagen (DE) 0.00 km UNKNOWN
R3420170 RS41 2020-06-02 07:16:55 42.3828 23.6104 128 ° 22 km/h 2081 m -9.3 m/s Sofia (BG) 405.301 MHz Apriltsi (BG) 0.00 km UNKNOWN
S0440453 RS41 2020-06-02 07:07:27 49.9404 9.8165 267 ° 15 km/h 946 m -5.2 m/s Meiningen (DE) 402.30 MHz Karlstadt (DE) 0.00 km UNKNOWN
ME9222BB4 M10 2020-06-02 07:01:35 44.2751 20.5393 119 ° 9 km/h 1102 m -12.1 m/s Belgrade (RS) MHz Aranđelovac (RS) 0.00 km UNKNOWN
R3331078 RS41 2020-06-02 06:57:56 50.9891 6.53282 355 ° 7 km/h 769 m -9.8 m/s Essen (DE) 405.30 MHz Bedburg (DE) 0.00 km UNKNOWN
R2820644 RS41 2020-06-02 06:52:09 47.7567 11.1449 257 ° 9 km/h 1212 m -5.4 m/s München (DE) 402.30 MHz Weilheim in Oberbayern (DE) 0.00 km FOUND
ME759147 M10 2020-06-02 06:40:04 44.3995 20.4758 289 ° 56 km/h 30663 m -66.2 m/s Belgrade (RS) MHz Aranđelovac (RS) 0.00 km UNKNOWN
P3321008 RS41 2020-06-02 06:33:51 48.878 11.7035 260 ° 13 km/h 771 m -7.2 m/s Kümmersbruck (DE) 402.700 MHz Riedenburg (DE) 0.00 km UNKNOWN
ME0122AD7 M10 2020-06-02 06:27:00 45.4957 14.6064 250 ° 7 km/h 1370 m -13.1 m/s Ljubljana (SI) 403.000 MHz Čabar (HR) 0.00 km UNKNOWN
R2320513 RS41-SGM 2020-06-02 06:25:26 -33.7252 139.145 51 ° 41 km/h 1664 m -7.1 m/s 402.600 MHz 0.00 km UNKNOWN
ME116330 M10 2020-06-02 06:09:17 45.5816 14.5924 268 ° 43 km/h 24126 m 4.5 m/s Ljubljana (SI) MHz Čabar (HR) 0.00 km UNKNOWN
S1610019 RS41 2020-06-02 05:54:26 52.0045 -4.33301 179 ° 33 km/h 14952 m -6.4 m/s Aberporth (GB) 405.601 MHz 0.00 km UNKNOWN
P3420518 RS41 2020-06-02 05:52:10 52.3294 7.17206 318 ° 20 km/h 287 m -5.1 m/s Meppen (DE) 404.50 MHz Bad Bentheim (DE) 0.00 km UNKNOWN
P3340523 RS41 2020-06-02 05:44:51 47.2788 10.8643 109 ° 20 km/h 2234 m -5.3 m/s Altenstadt (DE) 402.50 MHz Telfs (AT) 0.00 km UNKNOWN
R2250031 RS41-SGM 2020-06-02 05:30:26 -33.8023 138.935 84 ° 43 km/h 839 m -5.7 m/s 402.801 MHz 0.00 km UNKNOWN
M0820385 RS41-SGM 2020-06-02 05:00:57 -33.8081 138.928 19 ° 30 km/h 2970 m -5.5 m/s 402.600 MHz 0.00 km UNKNOWN
D19034464 DFM 2020-06-02 04:32:02 56.1604 9.05151 63 ° 9 km/h 153 m -10.5 m/s Karup (DK) 402.869 MHz Sunds (DK) 0.00 km UNKNOWN
M0840012 RS41-SGM 2020-06-02 04:31:26 -33.4139 139.272 53 ° 37 km/h 1568 m -3.7 m/s 402.201 MHz 0.00 km UNKNOWN
N4940549 RS41 2020-06-02 04:28:25 46.1765 15.49 217 ° 9 km/h 621 m -6.5 m/s Graz (AT) 404.70 MHz Celje (SI) 0.00 km UNKNOWN
S0220009 RS41 2020-06-02 04:23:38 47.519 14.2449 112 ° 19 km/h 1558 m -3.7 m/s Linz (AT) 403.40 MHz Bad Ischl (AT) 0.00 km FOUND
DF627160 DFM06 2020-06-02 04:16:12 56.1637 9.01883 182 ° 31 km/h 13691 m -25.0 m/s Karup (DK) MHz Herning (DK) 0.00 km UNKNOWN
P4930633 RS41 2020-06-02 04:15:42 46.7346 11.3661 178 ° 35 km/h 4948 m -7.7 m/s Innsbruck (AT) 404.10 MHz Bolzano (IT) 0.00 km UNKNOWN
M2630233 RS41 2020-06-02 04:04:57 -33.7612 138.916 72 ° 46 km/h 1029 m -6.2 m/s 402.400 MHz 0.00 km UNKNOWN
ME9B22029 M10 2020-06-02 03:06:31 47.066 15.9204 216 ° 30 km/h 470 m -4.3 m/s Vienna (AT) 400.999 MHz Szentgotthárd (HU) 0.00 km LOST
M0940172 RS41-SGM 2020-06-02 03:06:26 -33.4191 139.135 32 ° 33 km/h 1663 m -2.6 m/s 402.800 MHz 0.00 km UNKNOWN
N4750671 RS41 2020-06-02 02:46:32 46.5897 6.32645 324 ° 0 km/h 1446 m -0.1 m/s Payerne (CH) 403.50 MHz Aubonne (CH) 0.00 km UNKNOWN
P4820032 RS41 2020-06-02 02:25:38 45.2457 12.7506 69 ° 20 km/h 111 m -3.1 m/s Udine-Rivolto (IT) 404.00 MHz Venice (IT) 0.00 km UNKNOWN
R3450102 RS41 2020-06-02 02:24:23 39.7057 18.4802 159 ° 37 km/h 1119 m -2.2 m/s Brindisi (IT) 402.70 MHz Lecce (IT) 0.00 km UNKNOWN
S0541600 RS41 2020-06-02 02:11:41 57.1221 11.9623 167 ° 26 km/h 65 m -2.4 m/s Göteborg (SE) 403.600 MHz Varberg (SE) 0.00 km UNKNOWN
ME9722810 M10 2020-06-02 02:08:26 44.0341 -0.38894 123 ° 24 km/h 2491 m -1.9 m/s Bordeaux (FR) 401.998 MHz Mont-de-Marsan (FR) 0.00 km UNKNOWN
R5041020 RS41 2020-06-02 02:08:16 46.5896 18.8529 262 ° 9 km/h 1045 m -5.4 m/s Budapest (HU) 403.00 MHz Kalocsa (HU) 0.00 km UNKNOWN
ME96226EF M10 2020-06-02 01:58:56 48.3477 1.11966 242 ° 26 km/h 4714 m -3.6 m/s Trappes (FR) 401.002 MHz Chartres (FR) 0.00 km UNKNOWN
R0150617 RS41 2020-06-02 01:58:26 50.6084 0.0817692 217 ° 33 km/h 50 m -2.6 m/s Herstmonceux (GB) 404.783 MHz Brighton (GB) 0.00 km UNKNOWN
R2820643 RS41 2020-06-02 01:53:16 47.5643 11.2381 262 ° 6 km/h 1564 m -3.2 m/s München (DE) 402.30 MHz Penzberg (DE) 0.00 km UNKNOWN
R4011256 RS41 2020-06-02 01:46:56 -26.2392 -46.7021 118 ° 44 km/h 1839 m -6.1 m/s 403.002 MHz 0.00 km UNKNOWN
R3250116 RS41 2020-06-02 01:43:37 45.2085 15.79 215 ° 15 km/h 418 m -11.0 m/s Zagreb (HR) 402.00 MHz Velika Kladuša (BA) 0.00 km UNKNOWN
R3440141 RS41 2020-06-02 01:43:24 48.229 8.64122 204 ° 13 km/h 767 m -2.9 m/s Stuttgart (DE) 404.50 MHz Rottweil (DE) 0.00 km UNKNOWN
ME96221E1 M10 2020-06-02 01:41:06 41.5559 9.05493 154 ° 30 km/h 5263 m -13.2 m/s Ajaccio (FR) MHz Ajaccio (FR) 0.00 km UNKNOWN
R3330151 RS41-SGP 2020-06-02 01:38:41 53.3413 12.5523 206 ° 11 km/h 258 m -2.8 m/s Greifswald (DE) 402.30 MHz Röbel/Müritz (DE) 0.00 km FOUND
R3340694 RS41 2020-06-02 01:37:13 53.3336 6.59804 340 ° 13 km/h 978 m -4.8 m/s Norderney (DE) 404.10 MHz Groningen (NL) 0.00 km UNKNOWN
D19034048 DFM 2020-06-02 01:37:07 45.6506 19.8142 196 ° 15 km/h 396 m -11.2 m/s Szeged (HU) 402.008 MHz Srbobran (RS) 0.00 km UNKNOWN
P4030388 RS41 2020-06-02 01:34:01 51.8131 4.83587 226 ° 17 km/h 79 m -10.3 m/s De Bilt (NL) 403.90 MHz Gorinchem (NL) 0.00 km UNKNOWN
DF626FC0 DFM06 2020-06-02 01:32:53 45.667 19.811 158 ° 57 km/h 3633 m -14.0 m/s Szeged (HU) MHz Mali Iđoš (RS) 0.00 km UNKNOWN
R2620705 RS41 2020-06-02 01:29:55 50.3657 16.4163 190 ° 31 km/h 1266 m -11.5 m/s Wrocław (PL) 403.00 MHz Duszniki-Zdrój (PL) 0.00 km UNKNOWN
S0651453 RS41 2020-06-02 01:29:38 51.5678 23.1322 213 ° 30 km/h 566 m -13.0 m/s Brest (BY) 405.30 MHz Parczew (PL) 0.00 km UNKNOWN
R1920761 RS41 2020-06-02 01:29:26 60.3193 22.2995 324 ° 19 km/h 130 m -14.4 m/s Jokioinen (FI) 403.000 MHz Parainen (FI) 0.00 km UNKNOWN
R2331094 RS41 2020-06-02 01:27:42 52.2625 9.16274 302 ° 35 km/h 394 m -8.0 m/s Bergen (DE) 405.70 MHz Obernkirchen (DE) 0.00 km UNKNOWN
R1120336 RS41 2020-06-02 01:27:37 43.3041 -3.28684 153 ° 20 km/h 5244 m -3.2 m/s Santander (ES) 401.50 MHz Santurtzi (ES) 0.00 km UNKNOWN
R3340732 RS41 2020-06-02 01:23:18 50.9631 6.42206 302 ° 17 km/h 912 m -5.9 m/s Essen (DE) 405.30 MHz Jülich (DE) 0.00 km UNKNOWN
M0930188 RS41-SGM 2020-06-02 01:21:26 -33.5713 138.923 56 ° 46 km/h 1358 m -5.0 m/s 402.601 MHz Port Pirie (AU) 0.00 km UNKNOWN
R3641007 RS41-SG 2020-06-02 01:20:26 54.2213 -6.43041 151 ° 52 km/h 11888 m -7.2 m/s Castor Bay (IE) 404.202 MHz Warrenpoint (IE) 0.00 km UNKNOWN
R3510103 RS41 2020-06-02 01:19:33 37.4887 13.0866 291 ° 4 km/h 321 m -5.8 m/s Trapani-Birgi (IT) 402.70 MHz Mazara del Vallo (IT) 0.00 km LOST
R4441195 RS41-SG 2020-06-02 01:19:26 44.5371 26.6692 232 ° 26 km/h 546 m -9.1 m/s Bucarest (RO) 403.921 MHz Fundulea (RO) 0.00 km UNKNOWN
R0340561 RS41 2020-06-02 01:19:08 48.3261 20.0931 163 ° 30 km/h 2470 m -12.9 m/s Poprad (SK) 400.60 MHz Rimavská Sobota (SK) 0.00 km UNKNOWN
R4350820 RS41 2020-06-02 01:18:10 54.0348 16.6478 172 ° 19 km/h 243 m -12.0 m/s Łeba (PL) 403.00 MHz Bobolice (PL) 0.00 km UNKNOWN
R2410433 RS41 2020-06-02 01:17:53 41.2626 12.5809 107 ° 13 km/h 586 m -9.9 m/s Pratica di Mare (IT) 404.20 MHz Anzio (IT) 0.00 km UNKNOWN
S0440559 RS41 2020-06-02 01:17:27 44.2285 11.5724 272 ° 11 km/h 1345 m -11.1 m/s San Pietro Capofiume (IT) 404.60 MHz Imola (IT) 0.00 km FOUND
R3850746 RS41 2020-06-02 01:16:32 49.505 14.022 206 ° 17 km/h 820 m -10.2 m/s Praha (CZ) 401.10 MHz Mirovice (CZ) 0.00 km UNKNOWN
R2340876 RS41 2020-06-02 01:15:50 49.265 6.68034 265 ° 31 km/h 604 m -8.0 m/s Idar-Oberstein (DE) 402.70 MHz Saarlouis (DE) 0.00 km UNKNOWN
R3250664 RS41 2020-06-02 01:13:30 43.6518 15.2263 218 ° 48 km/h 2017 m -10.9 m/s Zadar (HR) 403.00 MHz Biograd na Moru (HR) 0.00 km UNKNOWN
S0910554 2020-06-02 01:12:27 53.7824 26.792 249 ° 15 km/h 13057 m -24.7 m/s MHz Dzyarzhynsk (BY) 0.00 km UNKNOWN
R3660288 RS41 2020-06-02 01:12:03 51.627 13.3249 235 ° 35 km/h 501 m -7.5 m/s Lindenberg (DE) 405.10 MHz Uebigau-Wahrenbrück (DE) 0.00 km UNKNOWN
P2830003 RS41 2020-06-02 01:10:59 45.1941 9.0009 83 ° 6 km/h 425 m -11.6 m/s Milano-Linate (IT) 404.80 MHz Pavia (IT) 0.00 km UNKNOWN
R3670166 RS41-SG 2020-06-02 01:10:26 -30.7522 137.267 41 ° 59 km/h 10971 m -10.8 m/s 402.501 MHz 0.00 km UNKNOWN
R3350531 RS41 2020-06-02 01:09:23 50.0377 9.83366 267 ° 37 km/h 588 m -3.8 m/s Meiningen (DE) 402.30 MHz Gemünden am Main (DE) 0.00 km UNKNOWN
P3330038 RS41 2020-06-02 01:09:01 48.9516 11.463 276 ° 22 km/h 1214 m -10.5 m/s Kümmersbruck (DE) 402.70 MHz Beilngries (DE) 0.00 km UNKNOWN
S0610950 RS41-SG 2020-06-02 01:08:46 58.8964 23.4379 270 ° 37 km/h 124 m -16.6 m/s Tallinn (EE) 404.000 MHz Haapsalu (EE) 0.00 km UNKNOWN
R3451311 RS41 2020-06-02 01:08:27 38.8647 9.58593 143 ° 24 km/h 2760 m -4.9 m/s Cagliari (IT) 402.80 MHz Quartu Sant Elena (IT) 0.00 km UNKNOWN
R3670236 RS41 2020-06-02 01:07:56 -37.2125 145.197 41 ° 43 km/h 15404 m -14.3 m/s Melbourne (AU) 401.500 MHz Melbourne (AU) 0.00 km UNKNOWN
R1140289 RS41 2020-06-02 01:07:44 48.6701 16.9833 149 ° 28 km/h 256 m -7.2 m/s Prostějov (CZ) 402.10 MHz Lanžhot (CZ) 0.00 km UNKNOWN
R3640510 RS41 2020-06-02 01:06:26 52.76 -1.26963 186 ° 19 km/h 987 m -2.4 m/s Watnall (GB) 404.202 MHz Leicester (GB) 0.00 km UNKNOWN
ME9222954 M10 2020-06-02 01:04:57 43.0309 21.9206 165 ° 59 km/h 9112 m -21.5 m/s Niš (RS) 402.402 MHz Leskovac (RS) 0.00 km UNKNOWN
R4530458 RS41 2020-06-02 01:03:04 51.745 20.4091 177 ° 22 km/h 551 m -16.0 m/s Legionowo (PL) 404.50 MHz Biała Rawska (PL) 0.00 km UNKNOWN
S0240360 RS41-SGP 2020-06-02 01:02:56 33.4519 -117.196 331 ° 33 km/h 2649 m -16.1 m/s San Diego [CA] (USA) 400.650 MHz 0.00 km UNKNOWN
R2320510 RS41-SGM 2020-06-02 00:58:56 -33.2786 139.197 50 ° 44 km/h 2082 m -1.6 m/s 402.401 MHz 0.00 km UNKNOWN
R1220945 RS41 2020-06-02 00:57:44 54.1751 8.99032 292 ° 13 km/h 82 m -10.9 m/s Schleswig (DE) 402.50 MHz Wesselburen (DE) 0.00 km UNKNOWN
ME9222BBF M10 2020-06-02 00:56:51 44.3408 20.3928 129 ° 37 km/h 579 m -13.1 m/s Belgrade (RS) 402.80 MHz Aranđelovac (RS) 0.00 km FOUND
R0221034 RS41 2020-06-02 00:53:39 44.2748 7.84764 197 ° 6 km/h 1638 m -5.0 m/s Cuneo-Levaldigi (IT) 402.80 MHz Cuneo (IT) 0.00 km UNKNOWN
N0710005 RS41-SGP 2020-06-02 00:51:42 25.1716 121.952 72 ° 46 km/h 6629 m -3.6 m/s New Taipei (TW) 400.30 MHz 0.00 km UNKNOWN
R4820152 RS41 2020-06-02 00:48:56 -32.595 152.291 4 ° 124 km/h 7440 m -10.6 m/s 402.401 MHz Nelson Bay (AU) 0.00 km UNKNOWN
DF926FC0 DFM09 2020-06-02 00:45:16 45.8248 20.0284 249 ° 26 km/h 28162 m 6.5 m/s Szeged (HU) 402.007 MHz Senta (RS) 0.00 km UNKNOWN
ME9222CEF M10 2020-06-02 00:45:02 43.7643 4.75404 239 ° 48 km/h 24258 m 4.5 m/s Nîmes (FR) MHz Arles (FR) 0.00 km UNKNOWN
ME761451 M10 2020-06-02 00:39:31 44.4341 20.3688 247 ° 43 km/h 31240 m -35.8 m/s Belgrade (RS) MHz Lajkovac (RS) 0.00 km UNKNOWN
R2150642 RS41-SGP 2020-06-02 00:31:56 58.7965 5.55294 69 ° 13 km/h 7375 m -14.1 m/s Stavanger (NO) 403.000 MHz 0.00 km UNKNOWN
R3010308 RS41 2020-06-02 00:24:51 56.3958 3.29034 188 ° 22 km/h 14684 m -28.1 m/s Ekofisk (NO) 402.00 MHz 0.00 km UNKNOWN
DF63B1DB DFM06 2020-06-02 00:22:50 36.3618 11.0777 182 ° 24 km/h 1692 m -9.4 m/s Tunis (TN) MHz 0.00 km UNKNOWN
IMETFB13A iMet 2020-06-02 00:07:13 50.3935 4.14318 0 ° 0 km/h 19234 m 0.0 m/s Beauvechain (BE) 402.997 MHz Binche (BE) 0.00 km UNKNOWN
IMET86674 iMET 2020-06-02 00:06:23 50.394 4.14353 215 ° 28 km/h 19328 m -9.7 m/s Beauvechain (BE) 402.997 MHz Binche (BE) 0.00 km UNKNOWN
R4840184 RS41-SG 2020-06-01 23:57:56 -34.7001 138.792 62 ° 83 km/h 13461 m 6.4 m/s Adelaide (AU) 401.501 MHz Adelaide (AU) 0.00 km UNKNOWN
R1020342 RS41 2020-06-01 23:35:36 40.5001 -3.52601 88 ° 50 km/h 6299 m 4.1 m/s Madrid (ES) 403.000 MHz Alcalá de Henares (ES) 0.00 km UNKNOWN
S1221176 RS41 2020-06-01 20:50:56 47.2516 15.5631 116 ° 9 km/h 1027 m -4.9 m/s Vienna (AT) 403.50 MHz Graz (AT) 0.00 km FOUND
N4810781 RS41 2020-06-01 19:52:39 46.6477 6.31976 243 ° 22 km/h 1704 m -3.1 m/s Payerne (CH) 403.50 MHz Romainmôtier (CH) 0.00 km UNKNOWN
ME97227DE M10 2020-06-01 19:44:56 44.2545 -0.27098 118 ° 63 km/h 4595 m -3.6 m/s Bordeaux (FR) 401.998 MHz Mont-de-Marsan (FR) 0.00 km UNKNOWN
ME9822271 M10 2020-06-01 19:42:39 41.5167 8.96942 124 ° 17 km/h 5698 m -8.8 m/s Ajaccio (FR) MHz Ajaccio (FR) 0.00 km UNKNOWN
ME96228DA M10 2020-06-01 19:35:26 48.3774 1.07435 250 ° 28 km/h 5673 m -7.5 m/s Trappes (FR) 401.000 MHz Chartres (FR) 0.00 km UNKNOWN
R0220472 RS41 2020-06-01 19:27:56 60.1965 22.3466 314 ° 20 km/h 230 m -14.3 m/s Jokioinen (FI) 402.999 MHz Parainen (FI) 0.00 km UNKNOWN
R2331404 RS41 2020-06-01 19:07:14 49.4191 6.64312 288 ° 20 km/h 1784 m -11.2 m/s Idar-Oberstein (DE) 402.700 MHz Merzig (DE) 0.00 km UNKNOWN
P3320988 RS41 2020-06-01 19:03:21 48.9657 11.3095 239 ° 17 km/h 1747 m -7.1 m/s Kümmersbruck (DE) 402.70 MHz Greding (DE) 0.00 km UNKNOWN
R2331067 RS41 2020-06-01 19:01:48 52.3666 9.29009 268 ° 19 km/h 269 m -10.5 m/s Bergen (DE) 405.70 MHz Sachsenhagen (DE) 0.00 km UNKNOWN
ME9222BBB M10 2020-06-01 18:52:26 44.4092 20.3015 130 ° 22 km/h 757 m -13.3 m/s Belgrade (RS) 402.80 MHz Lajkovac (RS) 0.00 km FOUND
R2150613 RS41 2020-06-01 18:52:26 58.8465 5.54927 54 ° 35 km/h 5914 m -18.4 m/s Stavanger (NO) 403.000 MHz 0.00 km UNKNOWN
R3820541 RS41 2020-06-01 18:46:15 51.7136 13.5709 215 ° 30 km/h 337 m -9.3 m/s Lindenberg (DE) 405.10 MHz Sonnewalde (DE) 0.00 km UNKNOWN
ME9222CF6 M10 2020-06-01 18:40:53 43.7854 4.85147 217 ° 39 km/h 23729 m 5.5 m/s Nîmes (FR) MHz Cavaillon (FR) 0.00 km UNKNOWN
PUAH2470 PilS 2020-06-01 18:00:34 50.4317 18.7246 191 ° 83 km/h 5662 m -26.9 m/s Bielsko-Biała (PL) 402.51 MHz Pyskowice (PL) 0.00 km UNKNOWN
PTAH2470 PilS 2020-06-01 17:57:14 50.4796 18.7375 190 ° 52 km/h 10906 m -30.5 m/s 402.51 MHz Tarnowskie Góry (PL) 0.00 km UNKNOWN
PSAH2470 PilS 2020-06-01 16:58:32 50.9701 18.7832 188 ° 131 km/h 10160 m 1.8 m/s 402.51 MHz Krzepice (PL) 0.00 km UNKNOWN
R0140028 RS41 2020-06-01 14:10:26 52.1024 -0.37928 268 ° 19 km/h 1448 m -4.9 m/s 402.500 MHz Cambridge (GB) 0.00 km UNKNOWN
ME9B2226E M10 2020-06-01 14:02:41 47.5971 15.6664 190 ° 33 km/h 1579 m -7.4 m/s Vienna (AT) 401.000 MHz Ternitz (AT) 0.00 km FOUND
ME97227FE M10 2020-06-01 13:54:26 44.3998 -0.0575403 100 ° 48 km/h 5175 m -2.5 m/s Bordeaux (FR) 401.998 MHz Agen (FR) 0.00 km UNKNOWN
R2410583 RS41 2020-06-01 13:47:24 41.1178 12.7732 23 ° 9 km/h 375 m -6.4 m/s Pratica di Mare (IT) 404.20 MHz Anzio (IT) 0.00 km UNKNOWN
R5040911 RS41 2020-06-01 13:44:27 46.8474 18.6514 166 ° 17 km/h 1147 m -11.3 m/s Budapest (HU) 403.00 MHz Sárbogárd (HU) 0.00 km UNKNOWN
ME9822350 M10 2020-06-01 13:43:07 41.6371 9.1071 199 ° 20 km/h 4235 m -8.4 m/s Ajaccio (FR) MHz Ajaccio (FR) 0.00 km UNKNOWN
R3341076 RS41 2020-06-01 13:42:35 53.4875 6.38573 297 ° 48 km/h 1308 m -3.7 m/s Norderney (DE) 404.10 MHz Borkum (DE) 0.00 km UNKNOWN
R3451575 RS41 2020-06-01 13:41:35 37.3672 13.5165 286 ° 2 km/h 312 m -0.2 m/s Trapani-Birgi (IT) 402.70 MHz Agrigento (IT) 0.00 km FOUND
R4230151 RS41 2020-06-01 13:41:11 51.9493 4.72922 202 ° 26 km/h 241 m -6.1 m/s De Bilt (NL) 403.901 MHz Gouda (NL) 0.00 km FOUND
P2820428 RS41 2020-06-01 13:40:11 45.2579 9.12216 55 ° 9 km/h 250 m -12.1 m/s Milano-Linate (IT) 404.80 MHz Pavia (IT) 0.00 km FOUND
R1940003 RS41 2020-06-01 13:37:26 60.0924 22.3724 344 ° 22 km/h 175 m -13.4 m/s Jokioinen (FI) 403.000 MHz Parainen (FI) 0.00 km UNKNOWN
R1220014 RS41 2020-06-01 13:34:51 54.133 8.68364 247 ° 33 km/h 113 m -4.5 m/s Schleswig (DE) 402.50 MHz Wesselburen (DE) 0.00 km UNKNOWN
R4350129 RS41 2020-06-01 13:33:56 -29.9688 -51.6697 63 ° 31 km/h 1297 m -9.4 m/s 403.001 MHz 0.00 km UNKNOWN
R1221154 RS41 2020-06-01 13:32:06 51.0758 5.99018 316 ° 4 km/h 1347 m -4.4 m/s Essen (DE) 405.30 MHz Montfort (NL) 0.00 km UNKNOWN
N4750707 RS41 2020-06-01 13:31:34 46.7953 6.47284 193 ° 7 km/h 1786 m -3.5 m/s Payerne (CH) 403.50 MHz Les Clées (CH) 0.00 km UNKNOWN
D19034018 DFM 2020-06-01 13:28:03 45.7985 19.7327 196 ° 22 km/h 727 m -14.2 m/s Szeged (HU) 402.008 MHz Bačka Topola (RS) 0.00 km UNKNOWN
DF626FA2 DFM06 2020-06-01 13:25:43 45.8076 19.7361 190 ° 43 km/h 2665 m -15.3 m/s Szeged (HU) MHz Bačka Topola (RS) 0.00 km UNKNOWN
ME9222936 M10 2020-06-01 13:25:06 43.1324 21.9833 155 ° 20 km/h 6963 m -15.1 m/s Niš (RS) MHz Gadžin Han (RS) 0.00 km UNKNOWN
R3440050 RS41 2020-06-01 13:24:56 48.6424 8.31213 280 ° 15 km/h 1122 m -6.3 m/s Stuttgart (DE) 404.501 MHz Gernsbach (DE) 0.00 km UNKNOWN
R3431123 RS41 2020-06-01 13:20:55 50.2275 9.63371 254 ° 26 km/h 612 m -2.9 m/s Meiningen (DE) 402.30 MHz Bad Brückenau (DE) 0.00 km UNKNOWN
R3620323 RS41 2020-06-01 13:19:23 51.6254 13.2737 214 ° 24 km/h 556 m -3.6 m/s Lindenberg (DE) 405.10 MHz Falkenberg/Elster (DE) 0.00 km UNKNOWN
R3450333 RS41 2020-06-01 13:19:18 40.2969 18.1511 166 ° 43 km/h 5863 m -14.1 m/s Brindisi (IT) 402.70 MHz Lecce (IT) 0.00 km UNKNOWN
R3950037 RS41 2020-06-01 13:19:11 51.6858 20.2005 185 ° 41 km/h 546 m -12.4 m/s Legionowo (PL) 404.50 MHz Rawa Mazowiecka (PL) 0.00 km FOUND
R1130225 RS41 2020-06-01 13:18:02 43.5075 -3.59064 100 ° 31 km/h 5042 m -3.9 m/s Santander (ES) 401.50 MHz Santander (ES) 0.00 km UNKNOWN
R2621273 RS41 2020-06-01 13:17:36 50.5613 16.2067 186 ° 33 km/h 1027 m -9.4 m/s Wrocław (PL) 403.00 MHz Police nad Metují (CZ) 0.00 km UNKNOWN
R1140366 RS41 2020-06-01 13:17:07 48.9232 16.4962 191 ° 30 km/h 374 m -11.9 m/s Prostějov (CZ) 402.10 MHz Pohořelice (CZ) 0.00 km UNKNOWN
R2751237 RS41 2020-06-01 13:16:11 47.8667 10.7887 210 ° 22 km/h 924 m -2.6 m/s München (DE) 402.30 MHz Schongau (DE) 0.00 km UNKNOWN
R4420839 RS41-SG 2020-06-01 13:15:26 44.4414 26.3484 100 ° 19 km/h 183 m -12.3 m/s Bucarest (RO) 403.921 MHz Fundulea (RO) 0.00 km UNKNOWN
R0150938 RS41-SG 2020-06-01 13:14:26 50.8137 -0.187549 218 ° 13 km/h 302 m -7.5 m/s Herstmonceux (GB) 404.783 MHz Brighton (GB) 0.00 km UNKNOWN
R3430023 RS41-SG 2020-06-01 13:14:26 42.547 23.5845 116 ° 35 km/h 1368 m -10.4 m/s Sofia (BG) 405.301 MHz Cherven Bryag (BG) 0.00 km UNKNOWN
R3250669 RS41 2020-06-01 13:13:11 43.7439 15.1644 216 ° 22 km/h 985 m -12.2 m/s Zadar (HR) 403.00 MHz Biograd na Moru (HR) 0.00 km UNKNOWN
R3770598 RS41-SG 2020-06-01 13:10:31 49.5716 13.8177 217 ° 22 km/h 902 m -9.9 m/s Praha (CZ) 401.10 MHz Rožmitál pod Třemšínem (CZ) 0.00 km FOUND
P4920365 RS41 2020-06-01 13:09:55 45.5623 12.6539 248 ° 22 km/h 1418 m -12.5 m/s Udine-Rivolto (IT) 404.00 MHz Venice (IT) 0.00 km UNKNOWN
R2331066 RS41-SGP 2020-06-01 13:09:12 52.5094 9.14233 277 ° 26 km/h 569 m -11.7 m/s Bergen (DE) 405.70 MHz Rehburg-Loccum (DE) 0.00 km FOUND
R3350340 RS41 2020-06-01 13:08:27 53.6598 12.6604 251 ° 33 km/h 266 m -10.3 m/s Greifswald (DE) 402.30 MHz Malchin (DE) 0.00 km NEED ATTENTION
R3650250 RS41 2020-06-01 13:08:26 52.9301 -1.54092 272 ° 17 km/h 581 m -3.7 m/s Watnall (GB) 404.201 MHz Derby (GB) 0.00 km UNKNOWN
R4011259 RS41 2020-06-01 13:06:36 -25.7303 -47.7766 90 ° 172 km/h 13725 m -9.8 m/s 403.002 MHz 0.00 km UNKNOWN
R3250895 RS41 2020-06-01 13:06:30 45.4376 15.6747 174 ° 13 km/h 263 m -13.8 m/s Zagreb (HR) 402.00 MHz Karlovac (HR) 0.00 km UNKNOWN
R3740349 RS41 2020-06-01 13:03:56 -34.0115 139.139 48 ° 57 km/h 1284 m -5.6 m/s Adelaide (AU) 401.501 MHz 0.00 km UNKNOWN
R0350195 RS41 2020-06-01 13:03:52 48.6031 19.8409 195 ° 65 km/h 6207 m -19.3 m/s Poprad (SK) 400.60 MHz Hnúšťa (SK) 0.00 km UNKNOWN
R4350781 RS41 2020-06-01 13:02:17 54.2263 16.7922 189 ° 26 km/h 514 m -14.8 m/s Łeba (PL) 403.00 MHz Kępice (PL) 0.00 km FOUND
ME96228FD M10 2020-06-01 13:01:26 48.657 1.15517 191 ° 19 km/h 33996 m -63.0 m/s Trappes (FR) 400.999 MHz Dreux (FR) 0.00 km UNKNOWN
ME9222986 M10 2020-06-01 13:00:53 43.1547 21.9552 158 ° 28 km/h 6957 m -18.4 m/s Niš (RS) MHz Gadžin Han (RS) 0.00 km UNKNOWN
R2150609 RS41 2020-06-01 12:57:26 58.9472 5.48209 1 ° 43 km/h 6839 m -15.8 m/s Stavanger (NO) 403.000 MHz 0.00 km UNKNOWN
P3320987 RS41 2020-06-01 12:56:51 48.9995 11.2835 253 ° 11 km/h 1707 m -10.3 m/s Kümmersbruck (DE) 402.699 MHz Greding (DE) 0.00 km UNKNOWN
ME9222B1C M10 2020-06-01 12:52:54 44.4524 20.3902 115 ° 28 km/h 813 m -11.1 m/s Belgrade (RS) 402.80 MHz Lajkovac (RS) 0.00 km FOUND
DF926FA2 DFM09 2020-06-01 12:52:16 45.8717 19.9074 285 ° 41 km/h 27451 m 4.5 m/s Szeged (HU) 402.009 MHz Senta (RS) 0.00 km UNKNOWN
S0240346 RS41-SGP 2020-06-01 12:51:56 33.4687 -117.098 7 ° 48 km/h 3594 m -10.7 m/s San Diego [CA] (USA) 400.650 MHz 0.00 km UNKNOWN
ME7C22CF5 M10 2020-06-01 12:50:26 -34.7041 -57.6083 100 ° 209 km/h 29728 m 7.3 m/s 401.399 MHz 0.00 km UNKNOWN
R3451309 RS41-SG 2020-06-01 12:49:58 39.1467 9.40032 118 ° 35 km/h 10831 m -5.4 m/s Cagliari (IT) 402.80 MHz Quartu Sant Elena (IT) 0.00 km UNKNOWN
ME763609 M10 2020-06-01 12:49:13 43.1764 21.9376 274 ° 31 km/h 31133 m -73.0 m/s Niš (RS) MHz Doljevac (RS) 0.00 km UNKNOWN
R2331557 RS41 2020-06-01 12:47:44 49.5145 6.62666 230 ° 24 km/h 1786 m -12.9 m/s Idar-Oberstein (DE) 402.70 MHz Merzig (DE) 0.00 km UNKNOWN
R0140430 RS41 2020-06-01 12:45:11 52.106 -0.43746 264 ° 24 km/h 1389 m -10.3 m/s 403.750 MHz Cambridge (GB) 0.00 km UNKNOWN
R1020324 RS41 2020-06-01 12:43:36 40.4428 -3.11039 267 ° 20 km/h 24799 m 5.3 m/s Madrid (ES) 403.000 MHz Guadalajara (ES) 0.00 km UNKNOWN
R1250775 RS41-SG 2020-06-01 12:41:56 54.4501 -6.21736 229 ° 41 km/h 16332 m -6.4 m/s Castor Bay (IE) 404.201 MHz Dromore (Co. Down) (IE) 0.00 km UNKNOWN
S0440804 RS41 2020-06-01 12:41:03 44.2637 11.673 304 ° 15 km/h 1255 m -11.4 m/s San Pietro Capofiume (IT) 404.60 MHz Imola (IT) 0.00 km UNKNOWN
N0710002 RS41 2020-06-01 12:38:46 25.1513 121.961 49 ° 46 km/h 7528 m -3.1 m/s New Taipei (TW) 400.30 MHz 0.00 km UNKNOWN
S0420193 RS41-SG 2020-06-01 12:37:56 62.3644 17.3183 201 ° 24 km/h 11637 m -29.8 m/s Sundsvall (SE) 404.001 MHz Sundsvall (SE) 0.00 km UNKNOWN
R0221003 RS41 2020-06-01 12:35:31 44.354 7.63796 271 ° 9 km/h 1455 m -11.0 m/s Cuneo-Levaldigi (IT) 402.80 MHz Cuneo (IT) 0.00 km NEED ATTENTION
ME736619 M10 2020-06-01 12:31:37 44.5342 20.3858 287 ° 37 km/h 27691 m 8.7 m/s Belgrade (RS) MHz Lajkovac (RS) 0.00 km UNKNOWN
ME9222D96 M10 2020-06-01 12:28:31 43.8749 4.79229 268 ° 19 km/h 18017 m 4.3 m/s Nîmes (FR) MHz Avignon (FR) 0.00 km UNKNOWN
D18068088 DFM09 2020-06-01 12:00:22 47.9871 16.8654 146 ° 33 km/h 387 m -7.3 m/s Záhorie (SK) 403.810 MHz Bratislava (SK) 0.00 km NEED ATTENTION
DF63B278 DFM09 2020-06-01 11:59:35 47.9904 16.8631 169 ° 35 km/h 840 m -10.3 m/s Záhorie (SK) 403.809 MHz Bratislava (SK) 0.00 km FOUND
R0140047 RS41-SG 2020-06-01 11:44:56 52.1124 -0.545179 252 ° 26 km/h 1669 m -2.1 m/s 403.000 MHz St. Albans (GB) 0.00 km UNKNOWN
DF93B278 DFM09 2020-06-01 11:36:36 48.1433 16.9421 245 ° 33 km/h 21898 m -21.8 m/s Vienna (AT) 403.808 MHz Bratislava (SK) 0.00 km UNKNOWN
S1250033 RS41 2020-06-01 11:13:56 59.213 14.7359 225 ° 17 km/h 19344 m 4.4 m/s Karlskoga (SE) 403.001 MHz Karlskoga (SE) 0.00 km UNKNOWN
R0140332 RS41-SG 2020-06-01 09:47:26 52.0986 -0.526211 261 ° 22 km/h 1390 m -7.6 m/s 403.750 MHz St. Albans (GB) 0.00 km UNKNOWN
S1310427 RS41-SGP 2020-06-01 09:44:56 59.2042 14.6993 193 ° 20 km/h 16945 m 4.5 m/s Karlskoga (SE) 402.001 MHz Karlskoga (SE) 0.00 km UNKNOWN
R0140015 RS41-SG 2020-06-01 09:29:56 52.0837 -0.600821 292 ° 26 km/h 2114 m -2.6 m/s 404.500 MHz St. Albans (GB) 0.00 km UNKNOWN
DF651A21 DFM06 2020-06-01 08:40:26 49.943 -4.94048 231 ° 15 km/h 8350 m -16.9 m/s Camborne (GB) 402.448 MHz Truro (GB) 0.00 km UNKNOWN
R0140014 RS41 2020-06-01 08:35:26 52.1027 -0.608159 266 ° 19 km/h 2183 m -2.5 m/s 403.502 MHz St. Albans (GB) 0.00 km UNKNOWN
ME9B2226F M10 2020-06-01 08:21:50 47.5531 15.3212 200 ° 22 km/h 1381 m -2.6 m/s Vienna (AT) 401.000 MHz Kapfenberg (AT) 0.00 km FOUND
S1310305 RS41 2020-06-01 08:20:11 59.1978 14.6666 263 ° 24 km/h 20604 m 5.5 m/s Karlskoga (SE) 404.001 MHz Karlskoga (SE) 0.00 km UNKNOWN
R3340330 RS41 2020-06-01 08:18:01 50.9674 5.49067 266 ° 28 km/h 1553 m -2.0 m/s Essen (DE) 405.30 MHz Genk (BE) 0.00 km UNKNOWN
R0140045 RS41 2020-06-01 08:08:56 52.0672 -0.70976 259 ° 26 km/h 1552 m -2.0 m/s 402.500 MHz St. Albans (GB) 0.00 km UNKNOWN
DF651BAD DFM06 2020-06-01 08:01:56 49.9395 -4.93335 236 ° 17 km/h 8604 m -19.6 m/s Camborne (GB) 403.109 MHz Truro (GB) 0.00 km UNKNOWN
R3440059 RS41 2020-06-01 07:40:17 48.4707 8.12895 287 ° 28 km/h 579 m -4.0 m/s Stuttgart (DE) 404.50 MHz Oppenau (DE) 0.00 km LOST
R3850745 RS41 2020-06-01 07:26:09 49.575 13.6119 182 ° 26 km/h 1427 m -11.5 m/s Praha (CZ) 401.10 MHz Spálené Poříčí (CZ) 0.00 km UNKNOWN
R1920743 RS41 2020-06-01 07:23:56 60.0774 22.3932 193 ° 20 km/h 366 m -14.8 m/s Jokioinen (FI) 402.980 MHz Parainen (FI) 0.00 km UNKNOWN
R3421062 RS41-SG 2020-06-01 07:21:56 42.5226 23.4012 186 ° 7 km/h 1184 m -10.6 m/s Sofia (BG) 405.302 MHz Berkovitsa (BG) 0.00 km UNKNOWN
N4750670 RS41 2020-06-01 07:19:20 46.8084 6.3579 178 ° 6 km/h 1972 m -3.1 m/s Payerne (CH) 403.50 MHz Les Clées (CH) 0.00 km UNKNOWN
R2331061 RS41-SGP 2020-06-01 07:16:50 52.4016 8.82514 264 ° 15 km/h 203 m -10.7 m/s Bergen (DE) 405.70 MHz Petershagen (DE) 0.00 km FOUND
P3330071 RS41 2020-06-01 07:09:56 49.0927 10.827 259 ° 19 km/h 1316 m -6.4 m/s Kümmersbruck (DE) 402.70 MHz Gunzenhausen (DE) 0.00 km UNKNOWN
R1240236 RS41 2020-06-01 07:07:24 50.2213 9.42533 303 ° 22 km/h 637 m -5.2 m/s Meiningen (DE) 402.30 MHz Bad Orb (DE) 0.00 km UNKNOWN
ME9222B42 M10 2020-06-01 07:00:30 44.4858 20.1487 121 ° 26 km/h 436 m -13.1 m/s Belgrade (RS) 402.00 MHz Lajkovac (RS) 0.00 km FOUND
R3652031 RS41 2020-06-01 06:53:46 51.7369 13.178 200 ° 17 km/h 501 m -14.4 m/s Lindenberg (DE) 405.10 MHz Herzberg (DE) 0.00 km UNKNOWN
R2331230 RS41 2020-06-01 06:51:26 49.4378 6.3685 275 ° 41 km/h 5454 m -11.7 m/s Idar-Oberstein (DE) 402.700 MHz Remich (LU) 0.00 km UNKNOWN
R0140029 RS41 2020-06-01 06:47:56 52.0833 -0.685679 221 ° 22 km/h 2055 m -2.0 m/s 403.000 MHz St. Albans (GB) 0.00 km UNKNOWN
R2820023 RS41 2020-06-01 06:39:52 47.9363 10.8747 274 ° 39 km/h 1092 m -13.9 m/s München (DE) 402.30 MHz Landsberg am Lech (DE) 0.00 km FOUND
S1320838 RS41-SGP 2020-06-01 06:36:13 59.1822 14.6527 195 ° 24 km/h 18345 m 6.7 m/s Karlskoga (SE) 403.001 MHz Karlskoga (SE) 0.00 km UNKNOWN
<-12> RS41 2020-06-01 06:24:56 52.1079 -0.590861 271 ° 15 km/h 4929 m -2.3 m/s 403.000 MHz St. Albans (GB) 0.00 km UNKNOWN
R0140044 RS41 2020-06-01 05:44:56 52.072 -0.696451 261 ° 15 km/h 1913 m -2.5 m/s 404.50 MHz St. Albans (GB) 0.00 km UNKNOWN
ME0122ADB M10 2020-06-01 05:37:00 45.6507 14.2664 221 ° 9 km/h 953 m -15.2 m/s Ljubljana (SI) 403.000 MHz Čabar (HR) 0.00 km FOUND
N4940537 RS41 2020-06-01 04:35:59 46.2408 14.7601 285 ° 7 km/h 1091 m -9.1 m/s Graz (AT) 404.70 MHz Kamnik (SI) 0.00 km FOUND
R5130011 RS41-SG 2020-06-01 04:07:31 47.745 13.6524 170 ° 6 km/h 1518 m -5.6 m/s Linz (AT) 403.40 MHz Bad Ischl (AT) 0.00 km UNKNOWN
P4930635 RS41 2020-06-01 04:03:30 46.8066 11.0744 234 ° 22 km/h 4060 m -9.9 m/s Innsbruck (AT) 404.10 MHz Bolzano (IT) 0.00 km UNKNOWN
R0150937 RS41 2020-06-01 02:32:56 50.7545 -0.73596 255 ° 44 km/h 187 m -2.0 m/s Herstmonceux (GB) 404.783 MHz Chichester (GB) 0.00 km UNKNOWN
R2830696 RS41 2020-06-01 02:14:25 47.595 10.5589 185 ° 0 km/h 920 m -0.3 m/s München (DE) 402.30 MHz Füssen (DE) 0.00 km FOUND
R3440142 RS41 2020-06-01 02:13:13 48.5615 7.92592 145 ° 19 km/h 227 m -2.3 m/s Stuttgart (DE) 404.50 MHz Renchen (DE) 0.00 km LOST
R3340336 RS41 2020-06-01 02:07:43 51.2306 5.59474 312 ° 24 km/h 1437 m -2.8 m/s Essen (DE) 405.30 MHz Hamont-Achel (BE) 0.00 km UNKNOWN
R2420019 RS41 2020-06-01 02:05:08 41.039 12.4165 125 ° 31 km/h 288 m -4.4 m/s Pratica di Mare (IT) 404.20 MHz Anzio (IT) 0.00 km UNKNOWN
R5041018 RS41 2020-06-01 01:57:21 46.9625 18.2587 211 ° 17 km/h 694 m -9.7 m/s Budapest (HU) 403.00 MHz Enying (HU) 0.00 km UNKNOWN
P2830022 RS41 2020-06-01 01:48:12 45.2236 8.89842 249 ° 11 km/h 1102 m -6.2 m/s Milano-Linate (IT) 404.80 MHz Vigevano (IT) 0.00 km UNKNOWN
P4820034 RS41 2020-06-01 01:47:42 45.2306 12.5405 353 ° 7 km/h 717 m -3.4 m/s Udine-Rivolto (IT) 404.00 MHz Venice (IT) 0.00 km UNKNOWN
S1220633 RS41 2020-06-01 01:45:42 47.7508 15.4605 309 ° 17 km/h 1424 m -5.8 m/s Vienna (AT) 403.50 MHz Kapfenberg (AT) 0.00 km UNKNOWN
R3340752 RS41 2020-06-01 01:44:18 53.5563 6.15786 282 ° 28 km/h 1847 m -4.1 m/s Norderney (DE) 404.10 MHz Dokkum (NL) 0.00 km UNKNOWN
R1220938 RS41 2020-06-01 01:43:03 54.1296 8.4463 260 ° 31 km/h 138 m -3.9 m/s Schleswig (DE) 402.50 MHz Garding (DE) 0.00 km UNKNOWN
R3251024 RS41 2020-06-01 01:38:00 45.2629 15.5109 129 ° 9 km/h 390 m -9.9 m/s Zagreb (HR) 402.00 MHz Slunj (HR) 0.00 km UNKNOWN
RS41-SGP 2020-06-01 01:36:27 -19.5858 -43.3486 70 ° 9 km/h 1660 m -3.0 m/s 404.000 MHz 0.00 km UNKNOWN
R1020319 RS41 2020-06-01 01:33:21 40.6265 -3.56233 56 ° 61 km/h 12613 m -4.0 m/s Madrid (ES) 403.500 MHz Alcalá de Henares (ES) 0.00 km UNKNOWN
R4110258 RS41 2020-06-01 01:31:43 52.0825 4.36647 258 ° 28 km/h 117 m -10.7 m/s De Bilt (NL) 403.902 MHz The Hague (NL) 0.00 km FOUND
N4750374 RS41 2020-06-01 01:31:10 46.9209 6.28417 54 ° 9 km/h 2567 m -4.8 m/s Payerne (CH) 403.50 MHz Val-de-Travers (CH) 0.00 km UNKNOWN
S0910672 RS41 2020-06-01 01:28:59 51.444 22.9676 228 ° 37 km/h 453 m -13.4 m/s Brest (BY) 405.30 MHz Ostrów Lubelski (PL) 0.00 km FOUND
R1940047 RS41 2020-06-01 01:26:26 60.0561 22.4172 215 ° 24 km/h 184 m -16.5 m/s Jokioinen (FI) 403.000 MHz Parainen (FI) 0.00 km UNKNOWN
R3510877 RS41 2020-06-01 01:26:16 40.348 18.3545 145 ° 22 km/h 265 m -12.4 m/s Brindisi (IT) 403.00 MHz Lecce (IT) 0.00 km UNKNOWN
R3350139 RS41-SGP 2020-06-01 01:25:41 53.7018 12.194 234 ° 22 km/h 124 m -6.4 m/s Greifswald (DE) 402.30 MHz Krakow am See (DE) 0.00 km FOUND
ME972279F M10 2020-06-01 01:24:56 44.6407 -0.43107 107 ° 30 km/h 3528 m -5.5 m/s Bordeaux (FR) 401.997 MHz Gradignan (FR) 0.00 km UNKNOWN
R0350202 RS41 2020-06-01 01:24:16 48.5565 19.45 220 ° 63 km/h 5043 m -11.6 m/s Poprad (SK) 400.60 MHz Detva (SK) 0.00 km UNKNOWN
R4530449 RS41 2020-06-01 01:23:56 -29.9935 -51.2411 59 ° 13 km/h 1218 m -9.1 m/s 403.001 MHz 0.00 km UNKNOWN
R1140299 RS41 2020-06-01 01:23:09 48.9924 16.1945 166 ° 24 km/h 407 m -11.3 m/s Prostějov (CZ) 402.10 MHz Miroslav (CZ) 0.00 km UNKNOWN
S0610422 RS41 2020-06-01 01:19:59 57.4255 11.7957 300 ° 19 km/h 630 m -10.7 m/s Göteborg (SE) 403.60 MHz Kungsbacka (SE) 0.00 km UNKNOWN
R3640507 RS41 2020-06-01 01:19:56 52.8561 -1.57878 280 ° 33 km/h 524 m -4.7 m/s Watnall (GB) 404.202 MHz Derby (GB) 0.00 km UNKNOWN
R3770491 RS41 2020-06-01 01:19:35 49.6207 13.5456 232 ° 35 km/h 1050 m -9.4 m/s Praha (CZ) 401.10 MHz Blovice (CZ) 0.00 km UNKNOWN
R1230625 RS41 2020-06-01 01:17:39 50.0799 9.36936 292 ° 19 km/h 674 m -4.1 m/s Meiningen (DE) 402.30 MHz Bad Orb (DE) 0.00 km UNKNOWN
DF626FA5 DFM06 2020-06-01 01:17:15 45.9706 19.4908 223 ° 35 km/h 2398 m -14.5 m/s Szeged (HU) MHz Subotica (RS) 0.00 km UNKNOWN
D19034021 DFM 2020-06-01 01:17:04 45.9713 19.4918 225 ° 35 km/h 2558 m -14.5 m/s Szeged (HU) 402.009 MHz Subotica (RS) 0.00 km UNKNOWN
R3960711 RS41 2020-06-01 01:13:50 51.8277 20.1068 199 ° 43 km/h 332 m -11.2 m/s Legionowo (PL) 404.50 MHz Rawa Mazowiecka (PL) 0.00 km FOUND
R2331056 RS41-SGP 2020-06-01 01:13:21 52.4167 8.93147 256 ° 31 km/h 242 m -7.7 m/s Bergen (DE) 405.70 MHz Petershagen (DE) 0.00 km FOUND
S0910204 RS41 2020-06-01 01:13:13 53.4704 27.0094 264 ° 33 km/h 23392 m -31.4 m/s 403.00 MHz Uzda (BY) 0.00 km UNKNOWN
DF63B208 DFM06 2020-06-01 01:13:00 36.1869 11.8377 151 ° 28 km/h 794 m -10.7 m/s Tunis (TN) MHz 0.00 km UNKNOWN
ME96228D1 M10 2020-06-01 01:12:56 48.6461 0.920821 263 ° 30 km/h 35683 m -59.2 m/s Trappes (FR) 401.001 MHz Dreux (FR) 0.00 km UNKNOWN
ME9822285 M10 2020-06-01 01:12:34 41.4953 8.93533 255 ° 67 km/h 34512 m -46.0 m/s Ajaccio (FR) MHz Ajaccio (FR) 0.00 km UNKNOWN
R4450729 RS41-SG 2020-06-01 01:12:26 44.4688 26.6027 82 ° 4 km/h 357 m -13.8 m/s Bucarest (RO) 403.921 MHz Fundulea (RO) 0.00 km UNKNOWN
R4350824 RS41 2020-06-01 01:12:21 54.2433 16.5789 247 ° 41 km/h 366 m -14.3 m/s Łeba (PL) 403.00 MHz Sławno (PL) 0.00 km UNKNOWN
R3730129 RS41-SG 2020-06-01 01:11:57 -33.8312 139.467 42 ° 56 km/h 1179 m -7.0 m/s Adelaide (AU) 401.501 MHz 0.00 km UNKNOWN
R2720128 RS41 2020-06-01 01:11:16 50.6474 16.0506 213 ° 26 km/h 928 m -13.7 m/s Wrocław (PL) 403.00 MHz Lubawka (PL) 0.00 km FOUND
S0610994 RS41 2020-06-01 01:11:11 58.698 23.712 254 ° 7 km/h 183 m -15.3 m/s Tallinn (EE) 404.000 MHz Lihula (EE) 0.00 km FOUND
R1050214 RS41 2020-06-01 01:08:28 43.5627 -3.68449 59 ° 30 km/h 6706 m -6.0 m/s Santander (ES) 401.50 MHz Santander (ES) 0.00 km UNKNOWN
R3820511 RS41 2020-06-01 01:06:18 51.8278 13.0409 250 ° 35 km/h 404 m -7.1 m/s Lindenberg (DE) 405.10 MHz Jessen (DE) 0.00 km UNKNOWN
R3250661 RS41 2020-06-01 01:05:37 43.5949 15.1786 147 ° 31 km/h 1666 m -12.3 m/s Zadar (HR) 403.00 MHz Biograd na Moru (HR) 0.00 km UNKNOWN
DF926FA5 DFM09 2020-06-01 01:04:36 46.0271 19.5335 208 ° 30 km/h 17225 m -32.0 m/s Szeged (HU) 402.006 MHz Subotica (RS) 0.00 km UNKNOWN
ME9222B4A M10 2020-06-01 01:01:47 44.5853 20.2074 176 ° 9 km/h 2924 m -11.6 m/s Belgrade (RS) 402.00 MHz Lajkovac (RS) 0.00 km FOUND
S0240358 RS41 2020-06-01 01:01:26 33.3462 -117.028 27 ° 67 km/h 4807 m -12.4 m/s San Diego [CA] (USA) 400.650 MHz 0.00 km UNKNOWN
ME9222981 M10 2020-06-01 00:58:50 43.2315 21.7695 207 ° 22 km/h 8513 m -20.6 m/s Niš (RS) 402.402 MHz Doljevac (RS) 0.00 km UNKNOWN
R3451598 RS41-SG 2020-06-01 00:58:25 37.2027 13.7174 204 ° 33 km/h 255 m -8.8 m/s Trapani-Birgi (IT) 402.70 MHz Agrigento (IT) 0.00 km FOUND
P3330150 RS41 2020-06-01 00:50:43 48.9871 11.122 289 ° 37 km/h 1657 m -12.8 m/s Kümmersbruck (DE) 402.70 MHz Eichstätt (DE) 0.00 km UNKNOWN
ME762329 M10 2020-06-01 00:49:46 43.2479 21.7909 258 ° 50 km/h 31992 m -71.5 m/s Niš (RS) MHz Merošina (RS) 0.00 km UNKNOWN
S0440783 RS41 2020-06-01 00:47:46 44.2432 11.5076 187 ° 15 km/h 1775 m -14.7 m/s San Pietro Capofiume (IT) 404.60 MHz Imola (IT) 0.00 km UNKNOWN
R2150612 RS41-SGP 2020-06-01 00:47:26 58.945 5.30358 346 ° 50 km/h 7457 m -18.5 m/s Stavanger (NO) 403.000 MHz 0.00 km UNKNOWN
R1920585 RS41 2020-06-01 00:44:47 44.2238 7.55138 190 ° 9 km/h 3600 m -10.5 m/s Cuneo-Levaldigi (IT) 402.800 MHz Cuneo (IT) 0.00 km UNKNOWN
R1210842 RS41-SG 2020-06-01 00:39:56 54.5149 -6.38533 268 ° 46 km/h 23418 m 5.4 m/s Castor Bay (IE) 404.201 MHz Lurgan (IE) 0.00 km UNKNOWN
R3730450 RS41-SG 2020-06-01 00:36:27 -37.1397 141.26 274 ° 20 km/h 25960 m 5.3 m/s 401.501 MHz Mount Gambier (AU) 0.00 km UNKNOWN
R3451004 RS41 2020-06-01 00:35:00 38.8745 9.69788 129 ° 15 km/h 2202 m -10.7 m/s Cagliari (IT) 402.80 MHz Quartu Sant Elena (IT) 0.00 km UNKNOWN
P4240070 RS41 2020-06-01 00:34:25 25.1239 121.888 70 ° 56 km/h 6870 m -6.3 m/s New Taipei (TW) 400.30 MHz 0.00 km UNKNOWN
R2331463 RS41 2020-06-01 00:30:20 49.5901 6.64095 279 ° 37 km/h 5530 m -14.2 m/s Idar-Oberstein (DE) 402.70 MHz Saarburg (DE) 0.00 km UNKNOWN
R3010602 RS41 2020-06-01 00:08:11 56.716 3.17253 212 ° 11 km/h 19751 m 5.1 m/s Ekofisk (NO) 403.00 MHz 0.00 km UNKNOWN
IMET5C45A iMet 2020-05-31 23:57:56 50.7752 4.01333 0 ° 0 km/h 8581 m 0.0 m/s Beauvechain (BE) 402.999 MHz Ninove (BE) 0.00 km UNKNOWN
IMET88555 iMET 2020-05-31 23:50:25 50.7623 4.07651 302 ° 9 km/h 10861 m -4.6 m/s Beauvechain (BE) 402.999 MHz Enghien (BE) 0.00 km UNKNOWN
R4810294 RS41-SG 2020-05-31 23:32:57 -32.8921 151.986 126 ° 78 km/h 5136 m 2.2 m/s 402.401 MHz Nelson Bay (AU) 0.00 km UNKNOWN
N4810786 RS41 2020-05-31 20:15:58 47.0473 5.93751 77 ° 9 km/h 3497 m -2.1 m/s Payerne (CH) 403.50 MHz Besançon (FR) 0.00 km UNKNOWN
ME96228DB M10 2020-05-31 19:44:56 48.3244 0.842179 220 ° 44 km/h 4690 m -4.6 m/s Trappes (FR) 400.999 MHz Chartres (FR) 0.00 km UNKNOWN
R1940045 RS41-SG 2020-05-31 19:33:56 59.9893 22.58 214 ° 35 km/h 289 m -14.9 m/s Jokioinen (FI) 403.000 MHz Hanko (FI) 0.00 km UNKNOWN
ME982229C M10 2020-05-31 19:24:51 41.3273 9.21838 143 ° 39 km/h 4090 m -8.7 m/s Ajaccio (FR) MHz Olbia (IT) 0.00 km UNKNOWN
R2150607 RS41-SGP 2020-05-31 19:10:26 58.9772 5.27787 306 ° 33 km/h 7155 m -7.1 m/s Stavanger (NO) 403.000 MHz 0.00 km UNKNOWN
R2331055 RS41 2020-05-31 19:06:28 52.5719 8.95424 230 ° 26 km/h 143 m -9.1 m/s Bergen (DE) 405.70 MHz Sulingen (DE) 0.00 km UNKNOWN
ME9722797 M10 2020-05-31 19:05:56 44.7078 -0.437861 116 ° 24 km/h 3676 m -6.1 m/s Bordeaux (FR) 401.997 MHz Bègles (FR) 0.00 km UNKNOWN
S1250929 RS41 2020-05-31 19:05:55 47.6495 15.9533 60 ° 6 km/h 670 m -0.2 m/s Vienna (AT) 403.50 MHz Ternitz (AT) 0.00 km NEED ATTENTION
P3330136 RS41 2020-05-31 18:58:28 49.0908 10.8974 213 ° 15 km/h 1619 m -13.5 m/s Kümmersbruck (DE) 402.70 MHz Ellingen (DE) 0.00 km FOUND
R3820602 RS41 2020-05-31 18:55:50 51.69 13.2259 211 ° 33 km/h 486 m -5.2 m/s Lindenberg (DE) 405.10 MHz Herzberg (DE) 0.00 km UNKNOWN
R2350082 RS41 2020-05-31 18:46:04 49.7164 6.39874 281 ° 31 km/h 2387 m -10.0 m/s Idar-Oberstein (DE) 402.70 MHz Grevenmacher (LU) 0.00 km LOST
ME9222BB0 M10 2020-05-31 18:40:45 44.6333 20.3882 113 ° 43 km/h 1632 m -14.1 m/s Belgrade (RS) 402.00 MHz Belgrade (RS) 0.00 km LOST
ME9222CF9 M10 2020-05-31 18:20:22 43.6455 4.81352 126 ° 28 km/h 16588 m 5.5 m/s Nîmes (FR) MHz Arles (FR) 0.00 km UNKNOWN
P4810219 RS41 2020-05-31 18:10:57 -38.1473 146.123 118 ° 63 km/h 16201 m -7.7 m/s Melbourne (AU) 402.500 MHz Moe (AU) 0.00 km UNKNOWN
ME9B220DA M10 2020-05-31 14:48:26 47.6755 14.7056 135 ° 39 km/h 1436 m -4.4 m/s Vienna (AT) 400.999 MHz Waidhofen (AT) 0.00 km UNKNOWN
R3451665 RS41 2020-05-31 14:26:02 40.435 18.6579 296 ° 4 km/h 609 m -2.5 m/s Brindisi (IT) 402.70 MHz Lecce (IT) 0.00 km UNKNOWN
P4820025 RS41 2020-05-31 14:15:42 45.5849 12.0188 214 ° 0 km/h 66 m -0.0 m/s Udine-Rivolto (IT) 404.00 MHz Treviso (IT) 0.00 km UNKNOWN